createdAt,value
2017-07-22T00:00:37.412Z,99.90
2017-07-22T00:03:05.563Z,99.90
2017-07-22T00:05:35.205Z,99.90
2017-07-22T00:08:05.220Z,99.90
2017-07-22T00:10:35.168Z,99.90
2017-07-22T00:13:05.956Z,99.90
2017-07-22T00:15:34.097Z,99.90
2017-07-22T00:18:03.189Z,99.90
2017-07-22T00:20:31.612Z,99.90
2017-07-22T00:23:00.099Z,99.90
2017-07-22T00:25:32.815Z,99.90
2017-07-22T00:28:02.365Z,99.90
2017-07-22T00:30:30.524Z,99.90
2017-07-22T00:33:00.930Z,99.90
2017-07-22T00:35:29.500Z,99.90
2017-07-22T00:37:57.271Z,99.90
2017-07-22T00:40:25.630Z,99.90
2017-07-22T00:42:53.558Z,99.90
2017-07-22T00:45:21.195Z,99.90
2017-07-22T00:47:50.768Z,99.90
2017-07-22T00:50:18.886Z,99.90
2017-07-22T00:52:47.120Z,99.90
2017-07-22T00:55:15.752Z,99.90
2017-07-22T00:57:44.037Z,99.90
2017-07-22T01:00:11.605Z,99.90
2017-07-22T01:02:39.189Z,99.90
2017-07-22T01:05:06.951Z,99.90
2017-07-22T01:07:34.519Z,99.90
2017-07-22T01:10:02.138Z,99.90
2017-07-22T01:12:29.717Z,99.90
2017-07-22T01:14:58.034Z,99.90
2017-07-22T01:17:25.600Z,99.90
2017-07-22T01:19:53.203Z,99.90
2017-07-22T01:22:20.754Z,99.90
2017-07-22T01:24:48.288Z,99.90
2017-07-22T01:27:15.875Z,99.90
2017-07-22T01:29:43.438Z,99.90
2017-07-22T01:32:10.999Z,99.90
2017-07-22T01:34:38.536Z,99.90
2017-07-22T01:37:06.093Z,99.90
2017-07-22T01:39:33.656Z,99.90
2017-07-22T01:42:01.197Z,99.90
2017-07-22T01:44:29.519Z,99.90
2017-07-22T01:46:58.076Z,99.90
2017-07-22T01:49:26.387Z,99.90
2017-07-22T01:51:53.943Z,99.90
2017-07-22T01:54:21.485Z,99.90
2017-07-22T01:56:49.035Z,99.90
2017-07-22T01:59:17.371Z,99.90
2017-07-22T02:01:44.904Z,99.90
2017-07-22T02:04:12.461Z,99.90
2017-07-22T02:06:40.795Z,99.90
2017-07-22T02:09:08.342Z,99.90
2017-07-22T02:11:35.932Z,99.90
2017-07-22T02:14:03.492Z,99.90
2017-07-22T02:16:31.056Z,99.90
2017-07-22T02:18:58.671Z,99.90
2017-07-22T02:21:26.218Z,99.90
2017-07-22T02:23:54.516Z,99.90
2017-07-22T02:26:22.082Z,99.90
2017-07-22T02:28:49.613Z,99.90
2017-07-22T02:31:17.181Z,99.90
2017-07-22T02:33:44.708Z,99.90
2017-07-22T02:36:12.256Z,99.90
2017-07-22T02:38:39.804Z,99.90
2017-07-22T02:41:07.351Z,99.90
2017-07-22T02:43:34.898Z,99.90
2017-07-22T02:46:02.480Z,99.90
2017-07-22T02:48:30.785Z,99.90
2017-07-22T02:50:58.342Z,99.90
2017-07-22T02:53:25.886Z,99.90
2017-07-22T02:55:54.235Z,99.90
2017-07-22T02:58:21.782Z,99.90
2017-07-22T03:00:49.329Z,99.90
2017-07-22T03:03:16.850Z,99.90
2017-07-22T03:05:44.424Z,99.90
2017-07-22T03:08:12.754Z,99.90
2017-07-22T03:10:40.322Z,99.90
2017-07-22T03:13:07.881Z,99.90
2017-07-22T03:15:35.427Z,99.90
2017-07-22T03:18:02.981Z,99.90
2017-07-22T03:20:30.539Z,99.90
2017-07-22T03:22:58.116Z,99.90
2017-07-22T03:25:25.657Z,99.90
2017-07-22T03:27:53.178Z,99.90
2017-07-22T03:30:21.761Z,99.90
2017-07-22T03:32:49.320Z,99.90
2017-07-22T03:35:17.899Z,99.90
2017-07-22T03:37:45.443Z,99.90
2017-07-22T03:40:13.314Z,99.90
2017-07-22T03:42:40.870Z,99.90
2017-07-22T03:45:08.443Z,99.90
2017-07-22T03:47:36.007Z,99.90
2017-07-22T03:50:03.581Z,99.90
2017-07-22T03:52:31.124Z,99.90
2017-07-22T03:54:59.508Z,99.90
2017-07-22T03:57:27.801Z,99.90
2017-07-22T03:59:55.353Z,99.90
2017-07-22T04:02:23.698Z,99.90
2017-07-22T04:04:51.267Z,99.90
2017-07-22T04:07:18.810Z,99.90
2017-07-22T04:09:46.363Z,99.90
2017-07-22T04:12:13.909Z,99.90
2017-07-22T04:14:41.476Z,99.90
2017-07-22T04:17:09.029Z,99.90
2017-07-22T04:19:36.570Z,99.90
2017-07-22T04:22:04.090Z,99.90
2017-07-22T04:24:31.656Z,99.90
2017-07-22T04:26:59.200Z,99.90
2017-07-22T04:29:26.763Z,99.90
2017-07-22T04:31:54.302Z,99.90
2017-07-22T04:34:22.621Z,99.90
2017-07-22T04:36:50.220Z,99.90
2017-07-22T04:39:17.767Z,99.90
2017-07-22T04:41:45.325Z,99.90
2017-07-22T04:44:12.874Z,99.90
2017-07-22T04:46:40.429Z,99.90
2017-07-22T04:49:08.008Z,99.90
2017-07-22T04:51:35.587Z,99.90
2017-07-22T04:54:04.185Z,99.90
2017-07-22T04:56:31.735Z,99.90
2017-07-22T04:58:59.283Z,99.90
2017-07-22T05:01:26.847Z,99.90
2017-07-22T05:03:54.506Z,99.90
2017-07-22T05:06:23.088Z,99.90
2017-07-22T05:08:50.651Z,99.70
2017-07-22T05:11:19.025Z,99.60
2017-07-22T05:13:47.322Z,98.90
2017-07-22T05:16:14.897Z,99.00
2017-07-22T05:18:42.419Z,99.80
2017-07-22T05:21:09.985Z,99.60
2017-07-22T05:23:37.533Z,99.90
2017-07-22T05:26:05.478Z,99.90
2017-07-22T05:28:33.013Z,99.90
2017-07-22T05:31:00.567Z,99.80
2017-07-22T05:33:28.914Z,99.20
2017-07-22T05:35:56.471Z,99.20
2017-07-22T05:38:24.020Z,98.70
2017-07-22T05:40:51.548Z,98.10
2017-07-22T05:43:20.102Z,97.70
2017-07-22T05:45:47.621Z,98.00
2017-07-22T05:48:15.383Z,97.70
2017-07-22T05:50:43.147Z,97.10
2017-07-22T05:53:11.128Z,97.20
2017-07-22T05:55:38.937Z,97.30
2017-07-22T05:58:06.786Z,97.20
2017-07-22T06:00:34.702Z,96.50
2017-07-22T06:03:02.509Z,96.80
2017-07-22T06:05:30.383Z,95.80
2017-07-22T06:07:58.209Z,95.80
2017-07-22T06:10:26.010Z,95.90
2017-07-22T06:12:53.772Z,95.90
2017-07-22T06:15:21.495Z,95.40
2017-07-22T06:17:49.289Z,95.10
2017-07-22T06:20:17.613Z,94.80
2017-07-22T06:22:45.187Z,94.80
2017-07-22T06:25:12.749Z,94.70
2017-07-22T06:27:40.315Z,93.70
2017-07-22T06:30:07.848Z,94.60
2017-07-22T06:32:35.415Z,94.50
2017-07-22T06:35:02.970Z,94.40
2017-07-22T06:37:30.654Z,94.80
2017-07-22T06:40:00.229Z,93.90
2017-07-22T06:42:29.535Z,93.40
2017-07-22T06:44:57.579Z,93.40
2017-07-22T06:47:25.139Z,93.20
2017-07-22T06:49:52.691Z,93.00
2017-07-22T06:52:20.238Z,93.10
2017-07-22T06:54:48.546Z,92.20
2017-07-22T06:57:16.337Z,92.20
2017-07-22T06:59:44.892Z,92.30
2017-07-22T07:02:12.445Z,91.70
2017-07-22T07:04:40.002Z,91.20
2017-07-22T07:07:08.556Z,90.40
2017-07-22T07:09:36.079Z,90.70
2017-07-22T07:12:03.675Z,90.60
2017-07-22T07:14:31.215Z,90.60
2017-07-22T07:16:58.743Z,90.30
2017-07-22T07:19:26.320Z,90.70
2017-07-22T07:21:53.848Z,89.30
2017-07-22T07:24:22.176Z,88.10
2017-07-22T07:26:49.731Z,88.30
2017-07-22T07:29:17.277Z,86.80
2017-07-22T07:31:45.636Z,86.70
2017-07-22T07:34:13.192Z,86.50
2017-07-22T07:36:40.779Z,86.40
2017-07-22T07:39:09.321Z,83.20
2017-07-22T07:41:36.957Z,83.00
2017-07-22T07:44:04.514Z,83.00
2017-07-22T07:46:32.079Z,83.40
2017-07-22T07:49:01.407Z,82.70
2017-07-22T07:51:28.957Z,82.60
2017-07-22T07:53:56.513Z,82.50
2017-07-22T07:56:25.302Z,82.90
2017-07-22T07:58:53.620Z,84.20
2017-07-22T08:01:22.193Z,81.90
2017-07-22T08:03:49.743Z,79.20
2017-07-22T08:06:18.060Z,77.70
2017-07-22T08:08:45.608Z,77.70
2017-07-22T08:11:13.200Z,76.10
2017-07-22T08:13:40.782Z,74.60
2017-07-22T08:16:08.340Z,72.90
2017-07-22T08:18:35.882Z,72.40
2017-07-22T08:21:03.459Z,69.30
2017-07-22T08:23:31.008Z,71.00
2017-07-22T08:25:58.556Z,69.80
2017-07-22T08:28:26.125Z,70.50
2017-07-22T08:30:53.663Z,69.80
2017-07-22T08:33:21.977Z,70.60
2017-07-22T08:35:49.522Z,70.40
2017-07-22T08:38:17.071Z,67.90
2017-07-22T08:40:45.383Z,69.00
2017-07-22T08:43:12.901Z,68.00
2017-07-22T08:45:40.434Z,66.90
2017-07-22T08:48:07.959Z,66.30
2017-07-22T08:50:35.493Z,63.80
2017-07-22T08:53:03.828Z,67.50
2017-07-22T08:55:31.401Z,67.50
2017-07-22T08:57:58.942Z,65.70
2017-07-22T09:00:26.495Z,67.60
2017-07-22T09:02:54.070Z,68.00
2017-07-22T09:05:21.655Z,64.60
2017-07-22T09:07:49.200Z,63.40
2017-07-22T09:10:16.799Z,63.70
2017-07-22T09:12:44.353Z,64.30
2017-07-22T09:15:11.965Z,59.50
2017-07-22T09:17:40.514Z,52.80
2017-07-22T09:20:09.055Z,50.50
2017-07-22T09:22:36.648Z,50.30
2017-07-22T09:25:04.222Z,46.20
2017-07-22T09:27:32.510Z,45.70
2017-07-22T09:30:00.063Z,45.60
2017-07-22T09:32:27.600Z,46.30
2017-07-22T09:34:55.138Z,47.30
2017-07-22T09:37:22.728Z,45.00
2017-07-22T09:39:50.290Z,42.10
2017-07-22T09:42:17.964Z,45.30
2017-07-22T09:44:45.815Z,42.90
2017-07-22T09:47:14.199Z,42.30
2017-07-22T09:49:42.511Z,42.50
2017-07-22T09:52:10.086Z,42.50
2017-07-22T09:54:37.649Z,42.00
2017-07-22T09:57:05.247Z,42.40
2017-07-22T09:59:32.793Z,43.20
2017-07-22T10:02:00.405Z,45.20
2017-07-22T10:04:28.806Z,42.30
2017-07-22T10:06:56.410Z,42.20
2017-07-22T10:09:24.057Z,43.10
2017-07-22T10:11:51.688Z,42.00
2017-07-22T10:14:19.268Z,43.60
2017-07-22T10:16:46.921Z,43.90
2017-07-22T10:19:14.559Z,43.30
2017-07-22T10:21:42.176Z,43.80
2017-07-22T10:24:09.934Z,43.20
2017-07-22T10:26:37.642Z,44.00
2017-07-22T10:29:05.292Z,43.70
2017-07-22T10:31:34.722Z,43.70
2017-07-22T10:34:02.484Z,43.90
2017-07-22T10:36:30.325Z,42.50
2017-07-22T10:39:00.043Z,43.00
2017-07-22T10:41:27.996Z,41.40
2017-07-22T10:43:55.564Z,43.90
2017-07-22T10:46:23.317Z,41.90
2017-07-22T10:48:50.971Z,37.30
2017-07-22T10:51:19.307Z,37.20
2017-07-22T10:53:46.977Z,37.20
2017-07-22T10:56:14.743Z,36.60
2017-07-22T10:58:42.294Z,37.00
2017-07-22T11:01:09.921Z,37.50
2017-07-22T11:03:37.719Z,37.00
2017-07-22T11:06:06.380Z,36.10
2017-07-22T11:08:34.807Z,34.10
2017-07-22T11:11:03.155Z,33.10
2017-07-22T11:13:30.847Z,32.20
2017-07-22T11:15:58.536Z,34.60
2017-07-22T11:18:26.156Z,32.50
2017-07-22T11:20:54.555Z,31.80
2017-07-22T11:23:22.822Z,31.80
2017-07-22T11:25:50.389Z,35.50
2017-07-22T11:28:18.728Z,33.30
2017-07-22T11:30:46.304Z,33.20
2017-07-22T11:33:13.861Z,34.20
2017-07-22T11:35:41.806Z,33.40
2017-07-22T11:38:09.393Z,34.20
2017-07-22T11:40:36.935Z,35.20
2017-07-22T11:43:05.333Z,31.80
2017-07-22T11:45:33.281Z,32.40
2017-07-22T11:48:00.840Z,32.00
2017-07-22T11:50:30.496Z,33.10
2017-07-22T11:52:58.661Z,31.00
2017-07-22T11:55:26.262Z,31.10
2017-07-22T11:57:53.871Z,29.40
2017-07-22T12:00:21.467Z,30.80
2017-07-22T12:02:49.064Z,33.30
2017-07-22T12:05:16.686Z,30.10
2017-07-22T12:07:44.413Z,31.80
2017-07-22T12:10:12.182Z,35.10
2017-07-22T12:12:39.860Z,33.20
2017-07-22T12:15:07.527Z,32.20
2017-07-22T12:17:35.226Z,33.00
2017-07-22T12:20:02.821Z,30.50
2017-07-22T12:22:30.385Z,30.90
2017-07-22T12:24:57.936Z,29.90
2017-07-22T12:27:25.529Z,32.50
2017-07-22T12:29:53.071Z,32.60
2017-07-22T12:32:20.760Z,31.10
2017-07-22T12:34:48.326Z,31.10
2017-07-22T12:37:16.638Z,30.00
2017-07-22T12:39:45.232Z,29.90
2017-07-22T12:42:12.792Z,28.90
2017-07-22T12:44:41.323Z,28.20
2017-07-22T12:47:08.868Z,28.30
2017-07-22T12:49:36.428Z,28.40
2017-07-22T12:52:04.086Z,28.90
2017-07-22T12:54:37.793Z,30.90
2017-07-22T12:57:05.367Z,31.30
2017-07-22T12:59:32.937Z,29.50
2017-07-22T13:02:00.713Z,29.60
2017-07-22T13:04:28.500Z,28.70
2017-07-22T13:06:57.180Z,28.20
2017-07-22T13:09:24.718Z,28.00
2017-07-22T13:11:52.566Z,29.50
2017-07-22T13:14:20.138Z,27.00
2017-07-22T13:16:47.776Z,28.40
2017-07-22T13:19:16.068Z,29.20
2017-07-22T13:21:44.395Z,30.00
2017-07-22T13:24:11.961Z,30.00
2017-07-22T13:26:39.528Z,31.00
2017-07-22T13:29:07.109Z,31.40
2017-07-22T13:31:34.712Z,31.90
2017-07-22T13:34:02.270Z,31.60
2017-07-22T13:36:29.842Z,30.10
2017-07-22T13:38:58.441Z,29.40
2017-07-22T13:41:26.018Z,29.20
2017-07-22T13:43:53.819Z,28.30
2017-07-22T13:46:21.762Z,27.80
2017-07-22T13:48:49.787Z,28.00
2017-07-22T13:51:19.297Z,29.70
2017-07-22T13:53:47.791Z,28.90
2017-07-22T13:56:16.344Z,28.70
2017-07-22T13:58:44.284Z,28.60
2017-07-22T14:01:11.837Z,29.20
2017-07-22T14:03:39.425Z,28.70
2017-07-22T14:06:06.994Z,28.80
2017-07-22T14:08:34.531Z,31.10
2017-07-22T14:11:02.311Z,28.70
2017-07-22T14:13:29.844Z,30.40
2017-07-22T14:15:59.024Z,32.50
2017-07-22T14:18:26.710Z,32.40
2017-07-22T14:20:55.045Z,31.50
2017-07-22T14:23:22.623Z,31.50
2017-07-22T14:25:50.179Z,33.10
2017-07-22T14:28:17.806Z,31.00
2017-07-22T14:30:46.300Z,32.30
2017-07-22T14:33:13.990Z,29.60
2017-07-22T14:35:42.542Z,30.20
2017-07-22T14:38:10.225Z,29.60
2017-07-22T14:40:37.835Z,29.50
2017-07-22T14:43:05.472Z,30.00
2017-07-22T14:45:33.106Z,29.90
2017-07-22T14:48:00.634Z,28.00
2017-07-22T14:50:28.174Z,27.60
2017-07-22T14:52:55.748Z,28.30
2017-07-22T14:55:23.291Z,27.00
2017-07-22T14:57:50.861Z,26.10
2017-07-22T15:00:18.450Z,27.60
2017-07-22T15:02:45.991Z,28.00
2017-07-22T15:05:13.759Z,27.70
2017-07-22T15:07:41.485Z,28.30
2017-07-22T15:10:09.016Z,28.90
2017-07-22T15:12:36.712Z,29.00
2017-07-22T15:15:05.152Z,28.30
2017-07-22T15:17:32.750Z,28.30
2017-07-22T15:20:00.301Z,28.90
2017-07-22T15:22:27.856Z,28.80
2017-07-22T15:24:55.354Z,28.60
2017-07-22T15:27:22.894Z,27.70
2017-07-22T15:29:50.405Z,28.60
2017-07-22T15:32:17.973Z,28.30
2017-07-22T15:34:45.569Z,28.10
2017-07-22T15:37:13.124Z,27.60
2017-07-22T15:39:40.754Z,29.00
2017-07-22T15:42:08.336Z,28.40
2017-07-22T15:44:35.898Z,28.70
2017-07-22T15:47:03.504Z,29.80
2017-07-22T15:49:31.075Z,28.70
2017-07-22T15:51:58.802Z,28.80
2017-07-22T15:54:26.783Z,29.40
2017-07-22T15:56:54.682Z,30.50
2017-07-22T15:59:22.361Z,31.00
2017-07-22T16:01:49.942Z,29.60
2017-07-22T16:04:17.539Z,30.70
2017-07-22T16:06:45.154Z,30.70
2017-07-22T16:09:12.715Z,30.20
2017-07-22T16:11:41.324Z,28.60
2017-07-22T16:14:08.889Z,28.80
2017-07-22T16:16:36.470Z,29.20
2017-07-22T16:19:04.778Z,29.30
2017-07-22T16:21:32.328Z,29.30
2017-07-22T16:23:59.875Z,28.70
2017-07-22T16:26:27.498Z,29.00
2017-07-22T16:28:56.726Z,29.40
2017-07-22T16:31:24.429Z,31.10
2017-07-22T16:33:52.819Z,35.70
2017-07-22T16:36:20.388Z,35.70
2017-07-22T16:38:47.949Z,35.70
2017-07-22T16:41:15.483Z,34.70
2017-07-22T16:43:43.801Z,35.10
2017-07-22T16:46:14.841Z,35.00
2017-07-22T16:48:42.386Z,35.10
2017-07-22T16:51:10.710Z,37.60
2017-07-22T16:53:38.468Z,37.70
2017-07-22T16:56:06.020Z,38.60
2017-07-22T16:58:33.580Z,39.10
2017-07-22T17:01:01.129Z,40.10
2017-07-22T17:03:28.739Z,40.60
2017-07-22T17:05:57.106Z,41.40
2017-07-22T17:08:24.646Z,41.30
2017-07-22T17:10:53.980Z,42.30
2017-07-22T17:13:22.118Z,42.30
2017-07-22T17:15:50.392Z,44.70
2017-07-22T17:18:18.713Z,45.10
2017-07-22T17:20:46.299Z,45.00
2017-07-22T17:23:13.893Z,46.00
2017-07-22T17:25:41.493Z,46.50
2017-07-22T17:28:09.809Z,46.10
2017-07-22T17:30:37.398Z,46.10
2017-07-22T17:33:05.279Z,45.50
2017-07-22T17:35:32.851Z,45.40
2017-07-22T17:38:00.431Z,46.70
2017-07-22T17:40:27.987Z,46.70
2017-07-22T17:42:56.331Z,45.70
2017-07-22T17:45:24.710Z,45.60
2017-07-22T17:47:52.473Z,47.50
2017-07-22T17:50:20.021Z,46.80
2017-07-22T17:52:49.627Z,47.20
2017-07-22T17:55:17.419Z,47.90
2017-07-22T17:57:45.564Z,48.20
2017-07-22T18:00:13.708Z,49.40
2017-07-22T18:02:41.518Z,51.00
2017-07-22T18:05:09.108Z,51.10
2017-07-22T18:07:38.464Z,51.30
2017-07-22T18:10:06.410Z,52.50
2017-07-22T18:12:36.408Z,53.50
2017-07-22T18:15:05.143Z,54.80
2017-07-22T18:17:33.011Z,55.20
2017-07-22T18:20:01.483Z,57.30
2017-07-22T18:22:29.624Z,57.20
2017-07-22T18:24:57.275Z,58.20
2017-07-22T18:27:26.918Z,58.70
2017-07-22T18:29:55.391Z,60.10
2017-07-22T18:32:23.003Z,60.00
2017-07-22T18:34:58.536Z,61.20
2017-07-22T18:37:35.141Z,62.40
2017-07-22T18:40:09.709Z,63.20
2017-07-22T18:42:37.407Z,63.10
2017-07-22T18:45:08.121Z,66.20
2017-07-22T18:47:37.959Z,66.10
2017-07-22T18:50:05.860Z,67.60
2017-07-22T18:52:33.472Z,67.50
2017-07-22T18:55:01.038Z,67.80
2017-07-22T18:57:33.284Z,69.00
2017-07-22T19:00:06.761Z,70.40
2017-07-22T19:02:34.474Z,71.10
2017-07-22T19:05:03.092Z,72.00
2017-07-22T19:07:30.756Z,72.90
2017-07-22T19:09:59.143Z,74.80
2017-07-22T19:12:28.588Z,75.30
2017-07-22T19:14:56.248Z,75.10
2017-07-22T19:17:23.976Z,75.80
2017-07-22T19:19:51.619Z,76.80
2017-07-22T19:22:19.286Z,77.40
2017-07-22T19:24:46.843Z,79.10
2017-07-22T19:27:14.454Z,80.10
2017-07-22T19:29:42.276Z,80.90
2017-07-22T19:32:10.036Z,81.60
2017-07-22T19:34:37.701Z,81.30
2017-07-22T19:37:05.349Z,82.10
2017-07-22T19:39:32.953Z,82.40
2017-07-22T19:42:00.619Z,81.50
2017-07-22T19:44:29.009Z,82.80
2017-07-22T19:46:56.682Z,83.10
2017-07-22T19:49:24.476Z,83.20
2017-07-22T19:51:52.165Z,84.50
2017-07-22T19:54:20.553Z,85.00
2017-07-22T19:56:48.205Z,84.90
2017-07-22T19:59:16.582Z,86.70
2017-07-22T20:01:44.298Z,86.60
2017-07-22T20:04:11.941Z,86.90
2017-07-22T20:10:02.919Z,89.50
2017-07-22T20:12:33.295Z,90.40
2017-07-22T20:15:01.604Z,90.80
2017-07-22T20:17:33.902Z,90.70
2017-07-22T20:20:03.477Z,90.70
2017-07-22T20:22:32.438Z,90.80
2017-07-22T20:25:03.060Z,90.90
2017-07-22T20:27:33.860Z,90.80
2017-07-22T20:30:02.401Z,91.00
2017-07-22T20:32:31.124Z,91.50
2017-07-22T20:34:59.999Z,92.00
2017-07-22T20:37:28.123Z,92.80
2017-07-22T20:39:57.243Z,92.80
2017-07-22T20:42:27.202Z,92.90
2017-07-22T20:44:55.437Z,92.80
2017-07-22T20:47:23.472Z,93.20
2017-07-22T20:49:53.450Z,93.60
2017-07-22T20:52:22.436Z,93.40
2017-07-22T20:54:51.372Z,93.20
2017-07-22T20:57:21.526Z,93.00
2017-07-22T20:59:51.037Z,93.00
2017-07-22T21:02:19.915Z,93.20
2017-07-22T21:04:47.782Z,93.60
2017-07-22T21:07:15.860Z,93.90
2017-07-22T21:09:45.884Z,93.40
2017-07-22T21:12:14.051Z,93.80
2017-07-22T21:17:18.392Z,94.10
2017-07-22T21:19:50.130Z,93.90
2017-07-22T21:22:18.626Z,93.80
2017-07-22T21:24:46.729Z,93.10
2017-07-22T21:27:15.380Z,93.60
2017-07-22T21:29:43.256Z,93.60
2017-07-22T21:32:11.214Z,94.10
2017-07-22T21:35:05.846Z,94.10
2017-07-22T21:37:35.251Z,94.30
2017-07-22T21:40:04.188Z,94.20
2017-07-22T21:42:33.915Z,94.00
2017-07-22T21:45:01.771Z,93.90
2017-07-22T21:47:31.726Z,93.80
2017-07-22T21:49:59.483Z,94.20
2017-07-22T21:52:28.099Z,93.70
2017-07-22T21:54:55.890Z,93.70
2017-07-22T21:57:23.869Z,93.80
2017-07-22T21:59:51.712Z,93.90
2017-07-22T22:02:20.301Z,93.70
2017-07-22T22:04:49.706Z,93.70
2017-07-22T22:07:17.379Z,93.70
2017-07-22T22:09:45.167Z,93.60
2017-07-22T22:12:12.902Z,93.30
2017-07-22T22:14:40.654Z,93.10
2017-07-22T22:17:08.508Z,92.80
2017-07-22T22:19:36.346Z,92.90
2017-07-22T22:22:04.170Z,92.80
2017-07-22T22:24:32.763Z,93.30
2017-07-22T22:27:00.592Z,93.30
2017-07-22T22:29:28.482Z,93.20
2017-07-22T22:31:56.385Z,93.00
2017-07-22T22:34:24.126Z,93.20
2017-07-22T22:36:51.888Z,93.30
2017-07-22T22:39:20.747Z,93.00
2017-07-22T22:41:48.564Z,92.90
2017-07-22T22:44:16.369Z,92.90
2017-07-22T22:46:44.200Z,92.70
2017-07-22T22:49:11.859Z,92.60
2017-07-22T22:51:39.704Z,92.60
2017-07-22T22:54:07.480Z,93.40
2017-07-22T22:56:35.269Z,94.50
2017-07-22T22:59:03.050Z,94.60
2017-07-22T23:01:30.952Z,94.90
2017-07-22T23:03:58.827Z,96.00
2017-07-22T23:06:26.707Z,95.50
2017-07-22T23:08:54.520Z,94.30
2017-07-22T23:11:22.208Z,93.70
2017-07-22T23:13:50.047Z,92.30
2017-07-22T23:16:17.972Z,92.00
2017-07-22T23:18:45.810Z,92.70
2017-07-22T23:21:13.514Z,92.90
2017-07-22T23:23:41.384Z,93.80
2017-07-22T23:26:09.211Z,94.90
2017-07-22T23:28:37.072Z,96.60
2017-07-22T23:31:04.840Z,97.50
2017-07-22T23:33:32.707Z,98.50
2017-07-22T23:36:00.488Z,99.30
2017-07-22T23:38:28.281Z,99.60
2017-07-22T23:40:56.048Z,99.80
2017-07-22T23:43:23.771Z,99.90
2017-07-22T23:45:51.543Z,99.90
2017-07-22T23:48:19.341Z,99.90
2017-07-22T23:50:47.094Z,99.90
2017-07-22T23:53:14.838Z,99.90
2017-07-22T23:55:42.613Z,99.90
2017-07-22T23:58:10.370Z,99.90
